Time;durP1;ratioP1;P1;durP2;ratioP2;P2;SDS_P1;SDS_P2;PMS_P1;PMS_P2;Temp;Humidity;BMP_temperature;BMP_pressure;BME280_temperature;BME280_humidity;BME280_pressure;Samples;Min_cycle;Max_cycle;Signal;HPM_P1;HPM_P2
2023/01/08 00:02:04;;;;;;;5.35;4.18;;;10.90;99.90;;;;;;5097540;28;20236;-88
2023/01/08 00:04:31;;;;;;;6.30;3.95;;;10.90;99.90;;;;;;5103480;28;20298;-86
2023/01/08 00:07:04;;;;;;;4.70;4.15;;;11.00;99.90;;;;;;5098380;28;20352;-87
2023/01/08 00:09:31;;;;;;;6.97;4.30;;;10.90;99.90;;;;;;5096073;28;20592;-86
2023/01/08 00:12:12;;;;;;;5.32;4.30;;;10.90;99.90;;;;;;5092702;28;20659;-85
2023/01/08 00:14:39;;;;;;;6.55;4.55;;;11.00;99.90;;;;;;5106023;28;20223;-87
2023/01/08 00:17:07;;;;;;;6.75;4.95;;;11.10;99.90;;;;;;5107040;28;20665;-84
2023/01/08 00:19:34;;;;;;;9.80;5.25;;;11.00;99.90;;;;;;5107404;28;20760;-84
2023/01/08 00:22:03;;;;;;;5.55;5.05;;;11.00;99.90;;;;;;5107923;28;20206;-86
2023/01/08 00:24:34;;;;;;;5.50;4.63;;;11.10;99.90;;;;;;5116100;28;20224;-85
2023/01/08 00:27:02;;;;;;;8.95;5.35;;;10.90;99.90;;;;;;5118315;28;20192;-85
2023/01/08 00:29:36;;;;;;;5.18;4.03;;;11.10;99.90;;;;;;5109494;28;20208;-85
2023/01/08 00:32:10;;;;;;;8.85;4.57;;;11.00;99.90;;;;;;5113480;28;20181;-86
2023/01/08 00:34:38;;;;;;;5.72;4.15;;;11.00;99.90;;;;;;5137929;22;20280;-83
2023/01/08 00:37:06;;;;;;;5.05;4.30;;;11.00;99.90;;;;;;5092210;28;20212;-85
2023/01/08 00:39:33;;;;;;;8.05;4.70;;;11.10;99.90;;;;;;5090362;28;20257;-85
2023/01/08 00:41:59;;;;;;;4.65;3.70;;;11.00;99.90;;;;;;5089749;28;20206;-83
2023/01/08 00:44:26;;;;;;;4.38;3.80;;;11.00;99.90;;;;;;5086690;28;20236;-83
2023/01/08 00:46:53;;;;;;;5.30;4.10;;;11.00;99.90;;;;;;5078443;28;20221;-82
2023/01/08 00:49:20;;;;;;;4.82;4.38;;;11.20;99.90;;;;;;5075594;28;20276;-82
2023/01/08 00:51:47;;;;;;;6.05;4.65;;;11.00;99.90;;;;;;5079626;28;20642;-83
2023/01/08 00:54:15;;;;;;;6.32;4.32;;;11.20;99.90;;;;;;5067372;28;20214;-82
2023/01/08 00:56:41;;;;;;;4.70;4.18;;;11.10;99.90;;;;;;5082424;28;20232;-81
2023/01/08 00:59:08;;;;;;;7.63;5.53;;;11.10;99.90;;;;;;5078737;28;20201;-83
2023/01/08 01:01:35;;;;;;;4.57;4.10;;;11.10;99.90;;;;;;5081736;28;20440;-84
2023/01/08 01:04:02;;;;;;;5.53;4.35;;;11.00;99.90;;;;;;5084895;28;20217;-82
2023/01/08 01:06:30;;;;;;;5.85;4.10;;;11.10;99.90;;;;;;5066418;28;20283;-85
2023/01/08 01:08:57;;;;;;;5.57;4.63;;;11.10;99.90;;;;;;5074534;28;20237;-84
2023/01/08 01:11:27;;;;;;;4.47;4.07;;;11.10;99.90;;;;;;5070320;28;20197;-83
2023/01/08 01:13:55;;;;;;;8.10;4.63;;;11.10;99.90;;;;;;5075118;28;20258;-82
2023/01/08 01:16:23;;;;;;;4.93;3.67;;;11.10;99.90;;;;;;5063002;28;20244;-84
2023/01/08 01:18:51;;;;;;;8.45;4.88;;;11.00;99.90;;;;;;5064273;28;20205;-83
2023/01/08 01:21:22;;;;;;;3.65;3.35;;;10.90;99.90;;;;;;5075151;28;20210;-83
2023/01/08 01:23:49;;;;;;;7.13;4.43;;;11.10;99.90;;;;;;5071427;28;20308;-83
2023/01/08 01:26:17;;;;;;;4.20;3.80;;;11.10;99.90;;;;;;5070538;28;20259;-83
2023/01/08 01:28:47;;;;;;;4.97;4.55;;;11.00;99.90;;;;;;5085149;28;20221;-82
2023/01/08 01:31:14;;;;;;;6.57;5.07;;;11.00;99.90;;;;;;5069437;28;20273;-83
2023/01/08 01:33:42;;;;;;;5.70;4.50;;;11.10;99.90;;;;;;5077300;28;20215;-83
2023/01/08 01:36:11;;;;;;;4.75;4.25;;;11.00;99.90;;;;;;5064693;28;20234;-83
2023/01/08 01:38:37;;;;;;;4.72;3.70;;;11.00;99.90;;;;;;5065018;28;20198;-83
2023/01/08 01:41:05;;;;;;;4.15;3.58;;;11.00;99.90;;;;;;5081592;28;20267;-83
2023/01/08 01:43:39;;;;;;;6.50;4.72;;;11.10;99.90;;;;;;5081359;28;20300;-83
2023/01/08 01:46:33;;;;;;;6.15;4.10;;;11.10;99.90;;;;;;5077311;28;20231;-83
2023/01/08 01:49:06;;;;;;;5.60;3.90;;;11.00;99.90;;;;;;5053898;28;20298;-84
2023/01/08 01:51:34;;;;;;;4.65;3.90;;;11.10;99.90;;;;;;5064567;28;20266;-82
2023/01/08 01:54:04;;;;;;;4.15;3.70;;;11.10;99.90;;;;;;5077196;28;20269;-84
2023/01/08 01:56:33;;;;;;;4.95;4.55;;;11.00;99.90;;;;;;5074255;28;20247;-83
2023/01/08 01:59:00;;;;;;;4.07;3.70;;;11.00;99.90;;;;;;5078894;28;20269;-83
2023/01/08 02:01:30;;;;;;;15.73;4.20;;;11.00;99.90;;;;;;5072263;28;20265;-83
2023/01/08 02:03:56;;;;;;;4.72;4.32;;;11.00;99.90;;;;;;5077173;28;20298;-83
2023/01/08 02:06:34;;;;;;;3.78;3.45;;;11.00;99.90;;;;;;5056932;28;20692;-83
2023/01/08 02:09:04;;;;;;;4.72;4.00;;;11.10;99.90;;;;;;5069661;28;20241;-83
2023/01/08 02:11:38;;;;;;;5.90;5.03;;;11.10;99.90;;;;;;5074029;28;20675;-83
2023/01/08 02:14:10;;;;;;;7.05;4.70;;;11.10;99.90;;;;;;5080591;28;20221;-83
2023/01/08 02:16:45;;;;;;;4.93;4.22;;;11.20;99.90;;;;;;5064439;28;20288;-83
2023/01/08 02:19:19;;;;;;;4.68;3.70;;;11.20;99.90;;;;;;5067434;28;20190;-83
2023/01/08 02:22:01;;;;;;;4.28;3.40;;;11.10;99.90;;;;;;5085150;28;20279;-82
2023/01/08 02:24:43;;;;;;;4.30;3.90;;;11.20;99.90;;;;;;5088475;28;20206;-83
2023/01/08 02:27:13;;;;;;;3.90;3.50;;;11.30;99.90;;;;;;5075737;28;20261;-82
2023/01/08 02:29:40;;;;;;;4.43;3.35;;;11.20;99.90;;;;;;5081028;28;20270;-83
2023/01/08 02:32:07;;;;;;;4.93;3.47;;;11.20;99.90;;;;;;5064708;28;20201;-83
2023/01/08 02:34:34;;;;;;;6.55;3.38;;;11.20;99.90;;;;;;5074051;28;20218;-83
2023/01/08 02:37:02;;;;;;;4.20;3.80;;;11.20;99.90;;;;;;5085234;28;20265;-82
2023/01/08 02:39:45;;;;;;;3.70;3.40;;;11.20;99.90;;;;;;5056405;28;20218;-83
2023/01/08 02:42:21;;;;;;;4.70;4.18;;;11.20;99.90;;;;;;5063866;28;20285;-83
2023/01/08 02:44:55;;;;;;;4.90;3.47;;;11.30;99.90;;;;;;5048485;28;20596;-83
2023/01/08 02:47:29;;;;;;;3.88;3.10;;;11.20;99.90;;;;;;5068445;28;20261;-82
2023/01/08 02:50:07;;;;;;;4.30;3.20;;;11.10;99.90;;;;;;5071869;28;20199;-83
2023/01/08 02:52:41;;;;;;;3.45;3.13;;;11.10;99.90;;;;;;5079506;28;20201;-83
2023/01/08 02:55:09;;;;;;;4.95;3.15;;;11.20;99.90;;;;;;5078261;28;20938;-83
2023/01/08 02:57:38;;;;;;;4.95;3.78;;;11.20;99.90;;;;;;5084498;28;20202;-83
2023/01/08 03:00:06;;;;;;;3.72;3.35;;;11.20;99.90;;;;;;5068793;28;20654;-83
2023/01/08 03:02:36;;;;;;;6.13;4.15;;;11.20;99.90;;;;;;5074913;28;20709;-83
2023/01/08 03:05:12;;;;;;;7.18;4.35;;;11.30;99.90;;;;;;5083051;28;20259;-81
2023/01/08 03:07:39;;;;;;;8.23;4.05;;;11.30;99.90;;;;;;5045850;28;20272;-82
2023/01/08 03:10:07;;;;;;;6.40;3.65;;;11.40;99.90;;;;;;5073375;28;20198;-82
2023/01/08 03:12:45;;;;;;;5.63;3.10;;;11.50;99.90;;;;;;5054719;28;20281;-83
2023/01/08 03:15:18;;;;;;;5.38;4.22;;;11.50;99.90;;;;;;5056462;28;20387;-83
2023/01/08 03:17:48;;;;;;;3.88;3.38;;;11.40;99.90;;;;;;5057049;28;20205;-83
2023/01/08 03:20:17;;;;;;;3.60;3.25;;;11.30;99.90;;;;;;5073635;28;20289;-83
2023/01/08 03:22:47;;;;;;;4.05;3.55;;;11.20;99.90;;;;;;5067501;28;20297;-83
2023/01/08 03:25:16;;;;;;;4.47;4.07;;;11.20;99.90;;;;;;5081041;28;20269;-82
2023/01/08 03:27:47;;;;;;;5.15;3.35;;;11.20;99.90;;;;;;5069988;28;20268;-82
2023/01/08 03:30:16;;;;;;;4.30;3.28;;;11.30;99.90;;;;;;5085184;28;20225;-82
2023/01/08 03:32:44;;;;;;;3.75;3.40;;;11.20;99.90;;;;;;5091759;28;20207;-82
2023/01/08 03:35:15;;;;;;;6.28;4.20;;;11.20;99.90;;;;;;5089729;28;20231;-81
2023/01/08 03:37:46;;;;;;;4.80;3.70;;;11.30;99.90;;;;;;5098143;28;20206;-81
2023/01/08 03:40:18;;;;;;;5.50;4.05;;;11.20;99.90;;;;;;5089327;28;20210;-81
2023/01/08 03:42:46;;;;;;;3.85;3.45;;;11.20;99.90;;;;;;5078955;28;20235;-82
2023/01/08 03:45:13;;;;;;;6.32;4.95;;;11.20;99.90;;;;;;5080738;28;20236;-80
2023/01/08 03:47:42;;;;;;;3.88;3.20;;;11.20;99.90;;;;;;5088468;28;20272;-81
2023/01/08 03:50:14;;;;;;;5.95;4.50;;;11.20;99.90;;;;;;5093242;28;20228;-83
2023/01/08 03:52:41;;;;;;;4.57;3.78;;;11.20;99.90;;;;;;5091915;28;20249;-83
2023/01/08 03:55:08;;;;;;;4.60;4.10;;;11.00;99.90;;;;;;5091824;28;20278;-83
2023/01/08 03:57:35;;;;;;;6.20;4.05;;;11.10;99.90;;;;;;5093392;28;20269;-83
2023/01/08 04:00:05;;;;;;;5.95;4.15;;;11.20;99.90;;;;;;5090644;28;20229;-83
2023/01/08 04:02:32;;;;;;;4.05;3.35;;;11.20;99.90;;;;;;5085637;28;20225;-82
2023/01/08 04:04:59;;;;;;;6.70;3.75;;;11.20;99.90;;;;;;5075186;28;20291;-82
2023/01/08 04:07:25;;;;;;;4.30;3.90;;;11.30;99.90;;;;;;5054113;28;20293;-83
2023/01/08 04:09:52;;;;;;;5.47;3.85;;;11.30;99.90;;;;;;5082674;28;20259;-83
2023/01/08 04:12:19;;;;;;;6.68;3.55;;;11.30;99.90;;;;;;5058342;28;20232;-83
2023/01/08 04:14:46;;;;;;;4.30;3.65;;;11.20;99.90;;;;;;5067681;28;20292;-83
2023/01/08 04:17:14;;;;;;;5.03;3.60;;;11.30;99.90;;;;;;5066876;28;20205;-83
2023/01/08 04:19:41;;;;;;;5.28;3.10;;;11.00;99.90;;;;;;5071718;28;20238;-82
2023/01/08 04:22:10;;;;;;;8.93;7.00;;;11.00;99.90;;;;;;5086086;28;20267;-83
2023/01/08 04:24:37;;;;;;;4.80;3.78;;;10.90;99.90;;;;;;5083720;28;20214;-84
2023/01/08 04:27:04;;;;;;;4.47;4.07;;;10.80;99.90;;;;;;5079255;28;20185;-83
2023/01/08 04:29:30;;;;;;;4.18;3.35;;;10.80;99.90;;;;;;5083211;28;20218;-82
2023/01/08 04:31:57;;;;;;;5.00;3.58;;;10.80;99.90;;;;;;5093687;28;20309;-83
2023/01/08 04:34:25;;;;;;;5.95;4.55;;;10.90;99.90;;;;;;5087844;28;20219;-83
2023/01/08 04:36:52;;;;;;;5.15;3.83;;;10.80;99.90;;;;;;5066027;28;20258;-82
2023/01/08 04:39:19;;;;;;;6.63;4.00;;;10.80;99.90;;;;;;5089050;28;20213;-83
2023/01/08 04:41:46;;;;;;;5.75;4.28;;;10.80;99.90;;;;;;5063964;28;20241;-83
2023/01/08 04:44:13;;;;;;;6.22;4.47;;;10.80;99.90;;;;;;5081402;28;20273;-83
2023/01/08 04:46:39;;;;;;;8.68;5.05;;;10.80;99.90;;;;;;5068036;28;20230;-83
2023/01/08 04:49:06;;;;;;;7.45;3.90;;;10.80;99.90;;;;;;5073391;28;20266;-82
2023/01/08 04:51:35;;;;;;;4.15;3.20;;;10.80;99.90;;;;;;5068401;28;20208;-83
2023/01/08 04:54:01;;;;;;;4.32;3.40;;;10.60;99.90;;;;;;5055273;28;20595;-83
2023/01/08 04:56:28;;;;;;;4.10;3.17;;;10.60;99.90;;;;;;5075094;28;20604;-83
2023/01/08 04:58:55;;;;;;;4.05;3.72;;;10.70;99.90;;;;;;5077638;28;20235;-83
2023/01/08 05:01:24;;;;;;;3.05;2.75;;;10.70;99.90;;;;;;5083458;28;20234;-83
2023/01/08 05:03:54;;;;;;;3.90;3.17;;;10.70;99.90;;;;;;5074576;28;20290;-83
2023/01/08 05:06:20;;;;;;;3.78;3.35;;;10.80;99.90;;;;;;5061170;28;20296;-82
2023/01/08 05:08:49;;;;;;;5.07;4.40;;;10.80;99.90;;;;;;5073488;28;20230;-83
2023/01/08 05:11:16;;;;;;;5.07;3.88;;;10.70;99.90;;;;;;5062680;28;20234;-84
2023/01/08 05:13:43;;;;;;;4.55;3.80;;;10.80;99.90;;;;;;5076026;28;20221;-83
2023/01/08 05:16:10;;;;;;;5.13;3.38;;;10.80;99.90;;;;;;5050780;28;20241;-83
2023/01/08 05:18:37;;;;;;;4.20;3.58;;;10.80;99.90;;;;;;5079310;28;20204;-84
2023/01/08 05:21:04;;;;;;;5.72;3.25;;;10.90;99.90;;;;;;5073646;28;20304;-84
2023/01/08 05:23:33;;;;;;;5.93;3.83;;;10.90;99.90;;;;;;5063771;28;20217;-84
2023/01/08 05:26:03;;;;;;;3.33;3.03;;;10.80;99.90;;;;;;5088924;28;20241;-82
2023/01/08 05:28:30;;;;;;;5.10;3.40;;;10.80;99.90;;;;;;5082077;28;20208;-83
2023/01/08 05:30:57;;;;;;;3.42;3.13;;;10.80;99.90;;;;;;5079343;28;20268;-82
2023/01/08 05:33:24;;;;;;;4.60;3.75;;;10.80;99.90;;;;;;5076651;28;20201;-82
2023/01/08 05:35:51;;;;;;;3.35;3.05;;;10.80;99.90;;;;;;5072558;28;20234;-82
2023/01/08 05:38:18;;;;;;;5.20;3.78;;;10.90;99.90;;;;;;5071869;28;20678;-82
2023/01/08 05:40:45;;;;;;;6.57;4.50;;;10.90;99.90;;;;;;5069044;28;20368;-82
2023/01/08 05:43:13;;;;;;;4.00;3.45;;;10.90;99.90;;;;;;5057867;28;20214;-82
2023/01/08 05:45:40;;;;;;;3.58;2.92;;;10.80;99.90;;;;;;5074343;28;20254;-83
2023/01/08 05:48:07;;;;;;;4.88;2.95;;;10.80;99.90;;;;;;5066215;28;20210;-83
2023/01/08 05:50:35;;;;;;;3.50;3.20;;;10.70;99.90;;;;;;5057427;28;20264;-83
2023/01/08 05:53:06;;;;;;;3.88;3.05;;;10.70;99.90;;;;;;5076330;28;20221;-83
2023/01/08 05:55:32;;;;;;;3.75;3.30;;;10.70;99.90;;;;;;5071345;28;20218;-83
2023/01/08 05:58:01;;;;;;;4.78;3.95;;;10.70;99.90;;;;;;5082706;28;20268;-82
2023/01/08 06:00:29;;;;;;;3.97;3.22;;;10.70;99.90;;;;;;5086489;28;20219;-83
2023/01/08 06:02:56;;;;;;;5.68;3.75;;;10.80;99.90;;;;;;5077934;28;20468;-82
2023/01/08 06:05:23;;;;;;;7.07;3.22;;;10.80;99.90;;;;;;5063472;28;20251;-82
2023/01/08 06:07:49;;;;;;;4.40;3.65;;;10.80;99.90;;;;;;5055833;28;20210;-82
2023/01/08 06:10:16;;;;;;;3.97;3.15;;;10.80;99.90;;;;;;5066192;28;20293;-82
2023/01/08 06:12:43;;;;;;;4.47;3.20;;;10.80;99.90;;;;;;5058101;28;20226;-83
2023/01/08 06:15:11;;;;;;;2.70;2.50;;;10.90;99.90;;;;;;5070115;28;20282;-83
2023/01/08 06:17:40;;;;;;;8.23;3.00;;;11.00;99.90;;;;;;5064032;28;20211;-83
2023/01/08 06:20:08;;;;;;;3.80;3.47;;;11.00;99.90;;;;;;5057001;28;20211;-82
2023/01/08 06:22:35;;;;;;;4.05;2.67;;;11.10;99.90;;;;;;5061656;28;20192;-81
2023/01/08 06:25:03;;;;;;;6.03;2.60;;;11.00;99.90;;;;;;5061563;28;20231;-81
2023/01/08 06:27:30;;;;;;;4.35;2.53;;;11.20;99.90;;;;;;5061301;28;20172;-80
2023/01/08 06:29:57;;;;;;;8.68;3.15;;;11.10;99.90;;;;;;5052406;28;20219;-81
2023/01/08 06:32:23;;;;;;;3.25;2.95;;;11.00;99.90;;;;;;5055953;28;20233;-82
2023/01/08 06:34:51;;;;;;;4.40;2.88;;;11.00;99.90;;;;;;5052873;28;20270;-81
2023/01/08 06:40:55;;;;;;;3.63;2.40;;;10.90;99.90;;;;;;5079663;28;20205;-85
2023/01/08 06:47:25;;;;;;;3.72;2.78;;;11.00;99.90;;;;;;5013187;28;20238;-86
2023/01/08 07:07:15;;;;;;;4.30;3.28;;;10.80;99.90;;;;;;4926825;29;20227;-85
2023/01/08 07:09:43;;;;;;;2.70;2.35;;;10.80;99.90;;;;;;4997203;28;20217;-86
2023/01/08 07:12:12;;;;;;;4.10;3.50;;;10.80;99.90;;;;;;5081269;28;20229;-85
2023/01/08 07:14:41;;;;;;;2.65;2.17;;;10.80;99.90;;;;;;5079857;28;20292;-84
2023/01/08 07:17:08;;;;;;;2.08;1.88;;;10.90;99.90;;;;;;5079446;28;20250;-86
2023/01/08 07:19:35;;;;;;;2.90;2.60;;;10.80;99.90;;;;;;5084287;28;20240;-87
2023/01/08 07:22:02;;;;;;;2.90;2.50;;;11.00;99.90;;;;;;5079749;28;20237;-85
2023/01/08 07:24:30;;;;;;;4.65;2.97;;;10.90;99.90;;;;;;5086612;28;20262;-85
2023/01/08 07:26:57;;;;;;;3.67;2.78;;;10.90;99.90;;;;;;5082610;28;20296;-85
2023/01/08 07:29:26;;;;;;;3.03;2.72;;;11.00;99.90;;;;;;5080164;28;20225;-86
2023/01/08 07:31:53;;;;;;;3.08;2.55;;;11.00;99.90;;;;;;5083209;28;20208;-84
2023/01/08 07:34:26;;;;;;;3.17;2.88;;;11.10;99.90;;;;;;5084212;28;20215;-83
2023/01/08 07:36:53;;;;;;;4.18;2.20;;;11.10;99.90;;;;;;5059128;28;20249;-84
2023/01/08 07:39:20;;;;;;;5.85;2.45;;;11.10;99.90;;;;;;5063590;28;20206;-86
2023/01/08 07:41:51;;;;;;;5.05;3.55;;;11.20;99.90;;;;;;5058959;28;20210;-85
2023/01/08 07:44:27;;;;;;;2.80;2.05;;;11.10;99.90;;;;;;5063271;28;20272;-86
2023/01/08 07:46:56;;;;;;;3.35;3.05;;;11.10;99.90;;;;;;5057444;28;20313;-85
2023/01/08 07:49:23;;;;;;;2.97;2.45;;;11.10;99.90;;;;;;5065560;28;20208;-86
2023/01/08 07:51:51;;;;;;;3.88;2.70;;;10.90;99.90;;;;;;5064464;28;20255;-83
2023/01/08 07:54:23;;;;;;;3.03;2.50;;;10.90;99.90;;;;;;5065939;28;20209;-84
2023/01/08 07:56:54;;;;;;;2.42;2.22;;;10.90;99.90;;;;;;5065973;28;20228;-84
2023/01/08 07:59:21;;;;;;;5.60;3.22;;;10.80;99.90;;;;;;5064979;28;20207;-85
2023/01/08 08:01:51;;;;;;;5.22;2.97;;;10.90;99.90;;;;;;5060522;28;20243;-87
2023/01/08 08:04:18;;;;;;;5.18;2.72;;;10.90;99.90;;;;;;5063996;28;20213;-85
2023/01/08 08:06:45;;;;;;;3.95;2.85;;;11.00;99.90;;;;;;5062991;28;20232;-84
2023/01/08 08:09:12;;;;;;;3.55;3.00;;;11.00;99.90;;;;;;5062179;28;20548;-85
2023/01/08 08:11:39;;;;;;;4.55;2.65;;;10.90;99.90;;;;;;5059996;28;20203;-86
2023/01/08 08:14:07;;;;;;;2.50;2.30;;;10.90;99.90;;;;;;5052712;28;20205;-84
2023/01/08 08:16:35;;;;;;;3.80;2.95;;;10.90;99.90;;;;;;5065790;28;20233;-83
2023/01/08 08:19:07;;;;;;;3.95;2.53;;;10.90;99.90;;;;;;5066300;28;20240;-83
2023/01/08 08:21:34;;;;;;;3.72;2.60;;;10.90;99.90;;;;;;5055945;28;20206;-82
2023/01/08 08:24:01;;;;;;;5.43;3.17;;;10.90;99.90;;;;;;5052820;28;20233;-84
2023/01/08 08:26:27;;;;;;;3.75;2.50;;;10.80;99.90;;;;;;5055204;28;20282;-83
2023/01/08 08:28:54;;;;;;;3.70;2.80;;;10.80;99.90;;;;;;5067638;28;20216;-84
2023/01/08 08:31:26;;;;;;;6.85;2.78;;;10.80;99.90;;;;;;5064571;28;20211;-85
2023/01/08 08:34:37;;;;;;;;;;;;;;;;;;;;;
2023/01/08 08:37:08;;;;;;;4.45;3.75;;;10.80;99.90;;;;;;5073950;28;20649;-87
2023/01/08 08:39:37;;;;;;;5.70;3.00;;;10.80;99.90;;;;;;5086128;28;20210;-87
2023/01/08 08:51:02;;;;;;;3.63;2.75;;;10.90;99.90;;;;;;5037367;28;20200;-87
2023/01/08 08:54:22;;;;;;;4.20;2.95;;;11.00;99.90;;;;;;5054562;28;20295;-85
2023/01/08 08:57:44;;;;;;;3.20;2.45;;;11.00;99.90;;;;;;5005062;28;20252;-86
2023/01/08 09:00:16;;;;;;;3.83;3.10;;;11.10;99.90;;;;;;4959792;28;20216;-88
2023/01/08 09:12:54;;;;;;;3.30;2.83;;;11.20;99.90;;;;;;4924870;28;20335;-84
2023/01/08 09:15:21;;;;;;;4.47;3.40;;;11.30;99.90;;;;;;5051929;28;20878;-85
2023/01/08 09:17:53;;;;;;;4.43;3.00;;;11.50;99.90;;;;;;5065810;28;20436;-84
2023/01/08 09:20:30;;;;;;;3.65;2.38;;;11.40;99.90;;;;;;5075560;28;20214;-86
2023/01/08 09:23:02;;;;;;;3.83;3.00;;;11.40;99.90;;;;;;5090368;28;20206;-84
2023/01/08 09:25:46;;;;;;;3.15;2.85;;;11.40;99.90;;;;;;5074626;28;20221;-83
2023/01/08 09:28:14;;;;;;;3.10;2.90;;;11.30;99.90;;;;;;5081969;28;20202;-84
2023/01/08 09:30:43;;;;;;;4.65;2.70;;;11.00;99.90;;;;;;5077676;28;20234;-85
2023/01/08 09:33:14;;;;;;;6.38;2.70;;;11.00;99.90;;;;;;5084747;28;20198;-83
2023/01/08 09:36:02;;;;;;;3.00;2.70;;;11.00;99.90;;;;;;5068626;28;20736;-83
2023/01/08 09:38:29;;;;;;;4.45;3.15;;;11.10;99.90;;;;;;5056695;28;20211;-84
2023/01/08 09:41:02;;;;;;;5.25;2.90;;;10.90;99.90;;;;;;5070614;28;20587;-84
2023/01/08 09:43:33;;;;;;;3.85;2.80;;;10.90;99.90;;;;;;5069227;28;20707;-85
2023/01/08 09:46:30;;;;;;;4.03;2.80;;;10.90;99.90;;;;;;5058093;28;20254;-84
2023/01/08 09:52:37;;;;;;;5.50;3.60;;;11.20;99.90;;;;;;5007912;28;20256;-85
2023/01/08 10:01:36;;;;;;;2.80;2.45;;;11.80;99.90;;;;;;5009537;23;20263;-86
2023/01/08 10:04:06;;;;;;;2.85;2.55;;;11.70;99.90;;;;;;5073647;28;20676;-80
2023/01/08 10:06:33;;;;;;;4.80;2.90;;;11.70;99.90;;;;;;5068575;28;20249;-84
2023/01/08 10:09:00;;;;;;;5.90;2.83;;;11.50;99.90;;;;;;5073900;28;20286;-84
2023/01/08 10:11:32;;;;;;;2.22;2.03;;;11.50;99.90;;;;;;5076453;28;20735;-85
2023/01/08 10:13:59;;;;;;;5.25;3.33;;;11.40;99.90;;;;;;5079659;28;20244;-86
2023/01/08 10:16:30;;;;;;;3.25;2.90;;;11.50;99.90;;;;;;5085622;28;20219;-83
2023/01/08 10:18:59;;;;;;;4.70;4.07;;;11.70;99.90;;;;;;5084400;28;20215;-76
2023/01/08 10:21:30;;;;;;;4.57;2.50;;;11.90;99.90;;;;;;5076842;28;20211;-77
2023/01/08 10:23:57;;;;;;;6.18;3.08;;;11.90;99.90;;;;;;5080922;28;20209;-77
2023/01/08 10:26:29;;;;;;;4.28;3.13;;;11.80;99.90;;;;;;5074870;28;20306;-80
2023/01/08 10:29:11;;;;;;;4.72;3.42;;;12.60;99.90;;;;;;5084681;28;20206;-79
2023/01/08 10:31:49;;;;;;;4.05;3.17;;;13.40;99.90;;;;;;5079706;28;20234;-78
2023/01/08 10:34:26;;;;;;;6.43;2.95;;;14.20;99.90;;;;;;5059238;28;20208;-78
2023/01/08 10:36:55;;;;;;;4.78;2.78;;;14.50;99.90;;;;;;5080279;28;20627;-75
2023/01/08 10:39:25;;;;;;;5.10;2.85;;;14.20;99.90;;;;;;5086156;28;20232;-79
2023/01/08 10:41:54;;;;;;;4.82;3.60;;;14.40;99.90;;;;;;5079042;28;20656;-78
2023/01/08 10:44:24;;;;;;;6.47;3.53;;;14.20;99.90;;;;;;5083021;28;20685;-76
2023/01/08 10:46:54;;;;;;;2.47;1.73;;;14.00;99.90;;;;;;5059592;28;20307;-78
2023/01/08 10:49:30;;;;;;;4.82;1.70;;;13.50;99.90;;;;;;5069850;28;20692;-78
2023/01/08 10:51:58;;;;;;;2.80;1.90;;;12.80;99.90;;;;;;5065649;28;20223;-82
2023/01/08 10:54:33;;;;;;;3.63;1.80;;;12.70;99.90;;;;;;5070422;28;20302;-78
2023/01/08 10:57:00;;;;;;;2.65;1.90;;;13.20;99.90;;;;;;5067094;28;20915;-79
2023/01/08 10:59:27;;;;;;;8.65;1.98;;;13.40;99.90;;;;;;5073002;28;21887;-77
2023/01/08 11:01:56;;;;;;;2.45;1.38;;;13.20;99.90;;;;;;5065475;28;20258;-78
2023/01/08 11:04:31;;;;;;;2.60;1.92;;;13.30;99.90;;;;;;5058742;28;20278;-80
2023/01/08 11:07:01;;;;;;;2.38;1.75;;;13.40;99.90;;;;;;5051865;28;20322;-78
2023/01/08 11:09:32;;;;;;;4.47;1.75;;;13.30;99.90;;;;;;5072516;28;20261;-80
2023/01/08 11:12:00;;;;;;;2.95;1.80;;;12.90;99.90;;;;;;5069157;28;20647;-78
2023/01/08 11:14:30;;;;;;;3.03;1.75;;;12.70;99.90;;;;;;5078380;28;20201;-78
2023/01/08 11:16:58;;;;;;;2.58;1.60;;;12.60;99.90;;;;;;5072848;28;20194;-79
2023/01/08 11:19:28;;;;;;;1.70;1.60;;;12.40;99.90;;;;;;5063381;28;20198;-75
2023/01/08 11:21:56;;;;;;;1.80;1.55;;;12.30;99.90;;;;;;5070642;28;20666;-75
2023/01/08 11:24:29;;;;;;;2.65;1.38;;;12.30;99.90;;;;;;5072017;28;20720;-77
2023/01/08 11:27:01;;;;;;;6.72;1.90;;;12.10;99.90;;;;;;5081656;28;20284;-76
2023/01/08 11:29:36;;;;;;;4.32;1.52;;;12.30;99.90;;;;;;5080461;28;20195;-77
2023/01/08 11:32:25;;;;;;;1.50;1.00;;;12.10;99.90;;;;;;5079797;28;20298;-77
2023/01/08 11:35:02;;;;;;;6.65;1.33;;;12.10;99.90;;;;;;5073048;28;20269;-78
2023/01/08 11:37:33;;;;;;;4.35;1.30;;;11.90;99.90;;;;;;5083071;28;20287;-77
2023/01/08 11:40:00;;;;;;;3.20;1.35;;;12.10;99.90;;;;;;5074483;28;20210;-78
2023/01/08 11:42:45;;;;;;;2.67;1.13;;;12.10;99.90;;;;;;5069948;28;20684;-78
2023/01/08 11:45:22;;;;;;;2.17;1.33;;;12.10;99.90;;;;;;5074563;28;20285;-78
2023/01/08 11:48:12;;;;;;;7.05;1.67;;;12.00;99.90;;;;;;5061471;28;20249;-77
2023/01/08 11:50:51;;;;;;;3.38;1.80;;;12.20;99.90;;;;;;5072592;28;20296;-77
2023/01/08 11:53:24;;;;;;;4.00;1.10;;;12.20;99.90;;;;;;5049395;28;20245;-78
2023/01/08 11:56:02;;;;;;;3.53;1.95;;;12.20;99.90;;;;;;5076043;28;20306;-78
2023/01/08 11:58:43;;;;;;;2.88;1.80;;;12.10;99.90;;;;;;5048417;28;20206;-77
2023/01/08 12:01:28;;;;;;;5.03;1.38;;;12.00;99.90;;;;;;5071870;28;20747;-77
2023/01/08 12:04:06;;;;;;;3.90;1.20;;;12.00;99.90;;;;;;5063394;28;20605;-77
2023/01/08 12:06:43;;;;;;;5.30;2.00;;;11.90;99.90;;;;;;5049018;28;20566;-75
2023/01/08 12:09:18;;;;;;;4.65;1.60;;;11.70;99.90;;;;;;5076361;28;20202;-78
2023/01/08 12:11:51;;;;;;;17.55;2.00;;;11.60;99.90;;;;;;5061110;28;20653;-78
2023/01/08 12:14:48;;;;;;;6.28;1.80;;;11.60;99.90;;;;;;5085161;28;20616;-78
2023/01/08 12:17:42;;;;;;;6.72;1.98;;;11.60;99.90;;;;;;5081572;28;20202;-78
2023/01/08 12:20:20;;;;;;;4.55;1.20;;;11.60;99.90;;;;;;5086310;28;20628;-77
2023/01/08 12:22:58;;;;;;;5.07;1.60;;;11.70;99.90;;;;;;5082052;28;20257;-77
2023/01/08 12:25:44;;;;;;;5.60;1.30;;;11.70;99.90;;;;;;5065137;28;20616;-76
2023/01/08 12:28:25;;;;;;;7.57;2.22;;;11.70;99.90;;;;;;5056471;28;20223;-77
2023/01/08 12:31:21;;;;;;;8.27;1.75;;;11.80;99.90;;;;;;5074423;28;20208;-78
2023/01/08 12:33:50;;;;;;;6.68;1.77;;;11.80;99.90;;;;;;5053535;28;20316;-78
2023/01/08 12:36:23;;;;;;;7.10;2.10;;;11.90;99.90;;;;;;5057382;22;1077140;-66
2023/01/08 12:38:55;;;;;;;5.15;1.80;;;11.80;99.90;;;;;;5068561;28;20540;-66
2023/01/08 12:41:23;;;;;;;2.95;1.60;;;11.80;99.90;;;;;;5068897;28;20217;-66
2023/01/08 12:43:55;;;;;;;6.20;2.70;;;11.70;99.90;;;;;;5068929;28;20634;-65
2023/01/08 12:46:24;;;;;;;8.98;3.15;;;11.80;99.90;;;;;;5057975;28;20230;-67
2023/01/08 12:48:53;;;;;;;10.48;2.65;;;11.80;99.90;;;;;;5046249;28;20233;-68
2023/01/08 12:51:26;;;;;;;6.30;2.13;;;11.80;99.90;;;;;;5042650;28;20650;-65
2023/01/08 12:54:04;;;;;;;6.18;1.95;;;11.70;99.90;;;;;;5040975;28;20214;-67
2023/01/08 12:56:43;;;;;;;8.00;2.35;;;11.80;99.90;;;;;;5045891;28;20230;-67
2023/01/08 12:59:30;;;;;;;8.65;2.20;;;11.70;99.90;;;;;;5046658;28;20210;-65
2023/01/08 13:02:03;;;;;;;7.35;2.10;;;11.80;99.90;;;;;;5041514;28;20203;-68
2023/01/08 13:04:40;;;;;;;6.90;1.70;;;11.70;99.90;;;;;;5043955;28;20225;-67
2023/01/08 13:07:12;;;;;;;8.25;2.25;;;11.60;99.90;;;;;;5045287;28;20230;-67
2023/01/08 13:09:40;;;;;;;10.73;2.67;;;11.50;99.90;;;;;;5049090;28;20219;-67
2023/01/08 13:12:08;;;;;;;8.68;1.80;;;11.60;99.90;;;;;;5041384;28;20202;-67
2023/01/08 13:14:42;;;;;;;10.98;2.65;;;11.60;99.90;;;;;;5043686;28;20203;-67
2023/01/08 13:17:18;;;;;;;7.47;1.73;;;11.60;99.90;;;;;;5040109;28;20667;-66
2023/01/08 13:19:52;;;;;;;6.85;1.92;;;11.60;99.90;;;;;;5049693;28;20212;-67
2023/01/08 13:22:27;;;;;;;3.78;1.95;;;11.60;99.90;;;;;;5046216;28;20676;-67
2023/01/08 13:25:22;;;;;;;5.85;2.40;;;11.60;99.90;;;;;;5047655;28;20559;-68
2023/01/08 13:27:49;;;;;;;16.10;2.65;;;11.60;99.90;;;;;;5049344;28;20255;-65
2023/01/08 13:30:48;;;;;;;11.88;3.30;;;11.60;99.90;;;;;;5050512;28;20214;-83
2023/01/08 13:33:40;;;;;;;8.63;2.45;;;11.70;99.90;;;;;;4993040;28;20224;-82
2023/01/08 13:36:20;;;;;;;8.55;2.97;;;11.80;99.90;;;;;;5051644;28;20234;-80
2023/01/08 13:38:59;;;;;;;9.13;1.90;;;11.80;99.90;;;;;;5059591;28;20207;-82
2023/01/08 13:42:12;;;;;;;7.05;1.98;;;11.90;99.90;;;;;;5062362;28;20194;-83
2023/01/08 13:44:48;;;;;;;7.38;1.95;;;11.90;99.90;;;;;;5072431;28;20202;-84
2023/01/08 13:47:22;;;;;;;9.32;2.58;;;12.00;99.90;;;;;;5058274;28;20282;-82
2023/01/08 13:49:52;;;;;;;6.75;2.20;;;12.00;99.90;;;;;;5056393;28;20284;-82
2023/01/08 13:55:34;;;;;;;5.95;1.73;;;11.80;99.90;;;;;;5012562;28;20210;-87
2023/01/08 13:58:08;;;;;;;5.05;2.40;;;11.70;99.90;;;;;;5064700;28;20199;-84
2023/01/08 14:00:57;;;;;;;5.68;2.80;;;11.70;99.90;;;;;;5064560;28;20198;-85
2023/01/08 14:03:25;;;;;;;11.07;2.65;;;11.50;99.90;;;;;;5060889;28;20234;-82
2023/01/08 14:05:53;;;;;;;8.23;1.98;;;11.50;99.90;;;;;;5056854;28;20714;-82
2023/01/08 14:08:24;;;;;;;7.53;1.70;;;11.50;99.90;;;;;;5058282;28;20305;-86